createdAt,value
2018-09-24T00:00:19.687Z,12.00
2018-09-24T00:02:49.110Z,11.90
2018-09-24T00:05:18.494Z,12.00
2018-09-24T00:07:47.909Z,12.00
2018-09-24T00:10:17.299Z,12.10
2018-09-24T00:12:46.679Z,12.00
2018-09-24T00:15:16.009Z,12.10
2018-09-24T00:17:45.365Z,12.00
2018-09-24T00:20:14.739Z,12.00
2018-09-24T00:22:44.118Z,12.00
2018-09-24T00:25:13.496Z,12.00
2018-09-24T00:27:42.808Z,12.00
2018-09-24T00:30:12.125Z,12.00
2018-09-24T00:32:41.513Z,11.90
2018-09-24T00:35:10.869Z,11.90
2018-09-24T00:37:40.232Z,11.70
2018-09-24T00:40:09.670Z,11.80
2018-09-24T00:42:39.042Z,11.80
2018-09-24T00:45:08.460Z,11.80
2018-09-24T00:47:37.945Z,11.80
2018-09-24T00:50:07.469Z,11.90
2018-09-24T00:52:36.884Z,11.90
2018-09-24T00:55:06.231Z,12.00
2018-09-24T00:57:35.589Z,12.00
2018-09-24T01:00:04.959Z,11.90
2018-09-24T01:02:34.399Z,11.70
2018-09-24T01:05:03.778Z,11.80
2018-09-24T01:07:33.137Z,11.90
2018-09-24T01:10:02.620Z,11.90
2018-09-24T01:12:31.952Z,11.90
2018-09-24T01:15:01.373Z,12.00
2018-09-24T01:17:30.753Z,12.00
2018-09-24T01:20:00.143Z,12.00
2018-09-24T01:22:29.479Z,12.10
2018-09-24T01:24:58.827Z,12.00
2018-09-24T01:27:28.176Z,12.00
2018-09-24T01:29:57.574Z,11.80
2018-09-24T01:32:26.946Z,11.70
2018-09-24T01:34:56.405Z,11.70
2018-09-24T01:37:25.841Z,11.70
2018-09-24T01:39:55.221Z,11.70
2018-09-24T01:42:24.635Z,11.80
2018-09-24T01:44:53.996Z,11.80
2018-09-24T01:47:23.391Z,11.70
2018-09-24T01:49:52.804Z,11.70
2018-09-24T01:52:22.258Z,11.60
2018-09-24T01:54:51.666Z,11.70
2018-09-24T01:57:21.037Z,11.60
2018-09-24T01:59:56.017Z,11.60
2018-09-24T02:02:25.387Z,11.60
2018-09-24T02:04:54.750Z,11.70
2018-09-24T02:07:24.127Z,11.60
2018-09-24T02:09:53.493Z,11.70
2018-09-24T02:12:22.898Z,11.70
2018-09-24T02:14:52.265Z,11.70
2018-09-24T02:17:22.927Z,11.60
2018-09-24T02:19:52.764Z,11.40
2018-09-24T02:22:28.846Z,11.30
2018-09-24T02:24:59.137Z,11.40
2018-09-24T02:27:28.599Z,11.40
2018-09-24T02:29:58.041Z,11.40
2018-09-24T02:32:27.421Z,11.40
2018-09-24T02:34:58.095Z,11.50
2018-09-24T02:37:27.454Z,11.50
2018-09-24T02:39:56.787Z,11.30
2018-09-24T02:42:26.210Z,11.30
2018-09-24T02:44:57.692Z,11.30
2018-09-24T02:47:31.255Z,11.30
2018-09-24T02:50:02.554Z,11.30
2018-09-24T02:52:31.992Z,11.20
2018-09-24T02:55:01.385Z,11.20
2018-09-24T02:57:30.803Z,11.20
2018-09-24T03:00:00.205Z,11.20
2018-09-24T03:02:29.627Z,11.20
2018-09-24T03:04:59.065Z,11.20
2018-09-24T03:07:28.419Z,11.20
2018-09-24T03:09:57.831Z,11.20
2018-09-24T03:12:27.214Z,11.20
2018-09-24T03:14:56.633Z,11.30
2018-09-24T03:17:25.983Z,11.30
2018-09-24T03:19:55.370Z,11.30
2018-09-24T03:22:25.904Z,11.30
2018-09-24T03:24:55.708Z,11.30
2018-09-24T03:27:25.443Z,11.30
2018-09-24T03:29:54.795Z,11.30
2018-09-24T03:32:24.299Z,11.40
2018-09-24T03:34:53.714Z,11.40
2018-09-24T03:37:23.106Z,11.50
2018-09-24T03:39:52.550Z,11.50
2018-09-24T03:42:21.974Z,11.50
2018-09-24T03:44:51.339Z,11.50
2018-09-24T03:47:20.738Z,11.50
2018-09-24T03:49:50.216Z,11.50
2018-09-24T03:52:19.679Z,11.40
2018-09-24T03:54:49.053Z,11.40
2018-09-24T03:57:18.430Z,11.40
2018-09-24T03:59:47.826Z,11.40
2018-09-24T04:02:17.215Z,11.40
2018-09-24T04:04:52.001Z,11.40
2018-09-24T04:07:26.557Z,11.40
2018-09-24T04:10:01.282Z,11.40
2018-09-24T04:12:35.848Z,11.40
2018-09-24T04:15:10.689Z,11.40
2018-09-24T04:17:45.453Z,11.30
2018-09-24T04:20:20.072Z,11.30
2018-09-24T04:22:54.676Z,11.30
2018-09-24T04:25:29.317Z,11.30
2018-09-24T04:28:03.842Z,11.30
2018-09-24T04:30:38.519Z,11.30
2018-09-24T04:33:12.976Z,11.30
2018-09-24T04:35:47.508Z,11.30
2018-09-24T04:38:21.951Z,11.30
2018-09-24T04:40:56.664Z,11.40
2018-09-24T04:43:31.278Z,11.40
2018-09-24T04:46:05.911Z,11.30
2018-09-24T04:48:40.408Z,11.30
2018-09-24T04:51:15.124Z,11.20
2018-09-24T04:53:49.920Z,11.20
2018-09-24T04:56:24.584Z,11.20
2018-09-24T04:58:59.116Z,11.30
2018-09-24T05:01:33.551Z,11.30
2018-09-24T05:04:08.046Z,11.20
2018-09-24T05:06:42.784Z,11.30
2018-09-24T05:09:17.354Z,11.40
2018-09-24T05:11:51.966Z,11.30
2018-09-24T05:14:26.609Z,11.30
2018-09-24T05:17:01.174Z,11.30
2018-09-24T05:19:35.664Z,11.20
2018-09-24T05:22:10.202Z,11.20
2018-09-24T05:24:44.829Z,11.20
2018-09-24T05:27:19.395Z,11.20
2018-09-24T05:29:53.808Z,11.10
2018-09-24T05:32:28.476Z,11.10
2018-09-24T05:35:03.014Z,11.10
2018-09-24T05:37:37.402Z,10.90
2018-09-24T05:40:12.228Z,10.80
2018-09-24T05:42:46.843Z,10.80
2018-09-24T05:45:21.409Z,11.00
2018-09-24T05:47:55.872Z,11.10
2018-09-24T05:50:30.457Z,11.40
2018-09-24T05:53:05.171Z,11.60
2018-09-24T05:55:39.746Z,11.80
2018-09-24T05:58:14.258Z,12.00
2018-09-24T06:00:48.938Z,12.20
2018-09-24T06:03:23.596Z,12.50
2018-09-24T06:05:58.194Z,12.70
2018-09-24T06:08:32.622Z,12.90
2018-09-24T06:11:07.248Z,13.10
2018-09-24T06:13:41.689Z,13.20
2018-09-24T06:16:16.094Z,13.40
2018-09-24T06:18:50.554Z,13.50
2018-09-24T06:21:25.125Z,13.50
2018-09-24T06:23:59.716Z,13.70
2018-09-24T06:26:34.256Z,13.90
2018-09-24T06:29:08.778Z,13.90
2018-09-24T06:31:43.436Z,13.90
2018-09-24T06:34:18.049Z,13.70
2018-09-24T06:36:53.047Z,13.70
2018-09-24T06:39:27.691Z,13.60
2018-09-24T06:42:02.616Z,13.50
2018-09-24T06:44:37.527Z,13.50
2018-09-24T06:47:12.561Z,13.50
2018-09-24T06:49:47.684Z,13.50
2018-09-24T06:52:22.236Z,13.40
2018-09-24T06:54:56.892Z,13.20
2018-09-24T06:57:31.523Z,13.10
2018-09-24T07:00:05.980Z,13.10
2018-09-24T07:02:40.722Z,12.90
2018-09-24T07:05:15.395Z,12.60
2018-09-24T07:07:49.868Z,12.40
2018-09-24T07:10:24.643Z,12.20
2018-09-24T07:12:59.224Z,12.10
2018-09-24T07:15:33.797Z,12.00
2018-09-24T07:18:08.312Z,11.90
2018-09-24T07:20:42.975Z,11.70
2018-09-24T07:23:17.667Z,11.70
2018-09-24T07:25:52.372Z,11.80
2018-09-24T07:28:26.983Z,11.90
2018-09-24T07:31:01.465Z,12.00
2018-09-24T07:33:35.943Z,12.00
2018-09-24T07:36:10.346Z,12.00
2018-09-24T07:38:44.771Z,11.80
2018-09-24T07:41:19.494Z,11.80
2018-09-24T07:43:54.109Z,11.80
2018-09-24T07:46:28.746Z,11.70
2018-09-24T07:49:03.236Z,11.80
2018-09-24T07:51:37.937Z,11.80
2018-09-24T07:54:12.507Z,11.80
2018-09-24T07:56:47.065Z,11.70
2018-09-24T07:59:21.527Z,11.70
2018-09-24T08:01:56.105Z,11.90
2018-09-24T08:04:31.028Z,11.90
2018-09-24T08:07:05.854Z,11.90
2018-09-24T08:09:40.492Z,11.90
2018-09-24T08:12:15.150Z,12.00
2018-09-24T08:14:49.648Z,12.10
2018-09-24T08:17:24.404Z,12.10
2018-09-24T08:19:58.812Z,12.20
2018-09-24T08:22:33.262Z,12.30
2018-09-24T08:25:07.786Z,12.20
2018-09-24T08:27:42.456Z,12.10
2018-09-24T08:30:16.999Z,12.20
2018-09-24T08:32:51.668Z,12.40
2018-09-24T08:35:26.335Z,12.40
2018-09-24T08:38:00.827Z,12.60
2018-09-24T08:40:35.643Z,12.70
2018-09-24T08:43:10.171Z,12.70
2018-09-24T08:45:44.817Z,12.70
2018-09-24T08:48:19.371Z,12.80
2018-09-24T08:50:54.096Z,12.80
2018-09-24T08:53:28.747Z,12.80
2018-09-24T08:56:03.182Z,12.80
2018-09-24T08:58:37.765Z,12.90
2018-09-24T09:01:12.411Z,12.90
2018-09-24T09:03:47.008Z,12.90
2018-09-24T09:06:21.719Z,12.80
2018-09-24T09:08:56.480Z,12.80
2018-09-24T09:11:31.072Z,12.80
2018-09-24T09:14:05.810Z,12.90
2018-09-24T09:16:40.401Z,12.90
2018-09-24T09:19:15.198Z,13.00
2018-09-24T09:21:49.780Z,13.00
2018-09-24T09:24:24.519Z,13.10
2018-09-24T09:26:59.121Z,13.20
2018-09-24T09:29:33.606Z,13.30
2018-09-24T09:32:08.199Z,13.30
2018-09-24T09:34:42.756Z,13.20
2018-09-24T09:37:17.634Z,13.30
2018-09-24T09:39:52.268Z,13.30
2018-09-24T09:42:26.862Z,13.30
2018-09-24T09:45:01.487Z,13.40
2018-09-24T09:47:36.129Z,13.50
2018-09-24T09:50:10.683Z,13.60
2018-09-24T09:52:45.139Z,13.60
2018-09-24T09:55:19.754Z,13.60
2018-09-24T09:57:54.256Z,13.50
2018-09-24T10:00:28.834Z,13.50
2018-09-24T10:03:03.417Z,13.50
2018-09-24T10:05:38.000Z,13.50
2018-09-24T10:08:12.447Z,13.50
2018-09-24T10:10:47.165Z,13.50
2018-09-24T10:13:21.817Z,13.60
2018-09-24T10:15:56.357Z,13.50
2018-09-24T10:18:31.078Z,13.50
2018-09-24T10:21:05.639Z,13.50
2018-09-24T10:23:40.333Z,13.70
2018-09-24T10:26:15.127Z,13.80
2018-09-24T10:28:49.717Z,13.80
2018-09-24T10:31:24.759Z,13.70
2018-09-24T10:33:59.380Z,13.80
2018-09-24T10:36:34.027Z,13.80
2018-09-24T10:39:08.670Z,13.90
2018-09-24T10:41:43.384Z,14.10
2018-09-24T10:44:17.891Z,14.20
2018-09-24T10:46:52.562Z,14.30
2018-09-24T10:49:27.159Z,14.30
2018-09-24T10:52:01.712Z,14.30
2018-09-24T10:54:36.400Z,14.30
2018-09-24T10:57:11.016Z,14.40
2018-09-24T10:59:45.667Z,14.30
2018-09-24T11:02:20.493Z,14.10
2018-09-24T11:04:55.133Z,14.20
2018-09-24T11:07:29.627Z,14.30
2018-09-24T11:10:04.468Z,14.40
2018-09-24T11:12:39.165Z,14.50
2018-09-24T11:15:13.773Z,14.50
2018-09-24T11:17:48.715Z,14.50
2018-09-24T11:20:23.089Z,14.50
2018-09-24T11:22:57.663Z,14.50
2018-09-24T11:25:32.326Z,14.60
2018-09-24T11:28:06.928Z,14.60
2018-09-24T11:30:41.547Z,14.70
2018-09-24T11:33:16.182Z,14.70
2018-09-24T11:35:50.814Z,14.80
2018-09-24T11:38:25.465Z,14.70
2018-09-24T11:41:00.050Z,14.60
2018-09-24T11:43:34.902Z,14.60
2018-09-24T11:46:09.555Z,14.60
2018-09-24T11:48:44.093Z,14.60
2018-09-24T11:51:18.662Z,14.70
2018-09-24T11:53:53.152Z,14.80
2018-09-24T11:56:27.754Z,14.70
2018-09-24T11:59:02.303Z,14.80
2018-09-24T12:01:36.861Z,14.90
2018-09-24T12:04:11.229Z,14.90
2018-09-24T12:06:45.919Z,14.80
2018-09-24T12:09:20.633Z,14.80
2018-09-24T12:11:55.256Z,14.80
2018-09-24T12:14:29.927Z,14.80
2018-09-24T12:17:04.481Z,14.90
2018-09-24T12:19:38.887Z,15.00
2018-09-24T12:22:13.616Z,15.10
2018-09-24T12:24:48.157Z,15.30
2018-09-24T12:27:22.632Z,15.40
2018-09-24T12:29:57.237Z,15.40
2018-09-24T12:32:31.845Z,15.30
2018-09-24T12:35:06.389Z,15.20
2018-09-24T12:37:40.908Z,15.20
2018-09-24T12:40:15.470Z,15.10
2018-09-24T12:42:49.993Z,15.10
2018-09-24T12:45:24.693Z,15.10
2018-09-24T12:47:59.177Z,15.30
2018-09-24T12:50:33.825Z,15.40
2018-09-24T12:53:08.466Z,15.50
2018-09-24T12:55:43.079Z,15.40
2018-09-24T12:58:17.688Z,15.50
2018-09-24T13:00:52.226Z,15.50
2018-09-24T13:03:26.728Z,15.50
2018-09-24T13:06:01.385Z,15.60
2018-09-24T13:08:36.066Z,15.50
2018-09-24T13:11:10.751Z,15.70
2018-09-24T13:13:45.561Z,15.70
2018-09-24T13:16:20.123Z,15.70
2018-09-24T13:18:54.800Z,15.80
2018-09-24T13:21:29.401Z,15.90
2018-09-24T13:24:03.957Z,15.90
2018-09-24T13:26:38.440Z,15.90
2018-09-24T13:29:12.975Z,15.90
2018-09-24T13:31:47.584Z,15.90
2018-09-24T13:34:22.176Z,15.90
2018-09-24T13:36:56.693Z,15.90
2018-09-24T13:39:31.217Z,15.90
2018-09-24T13:42:05.656Z,15.80
2018-09-24T13:44:40.308Z,15.80
2018-09-24T13:47:15.003Z,15.70
2018-09-24T13:49:49.597Z,15.70
2018-09-24T13:52:24.261Z,15.70
2018-09-24T13:54:58.839Z,15.70
2018-09-24T13:57:33.393Z,15.60
2018-09-24T14:00:07.869Z,15.50
2018-09-24T14:02:42.623Z,15.40
2018-09-24T14:05:17.193Z,15.30
2018-09-24T14:07:51.778Z,15.30
2018-09-24T14:10:26.332Z,15.30
2018-09-24T14:13:00.909Z,15.30
2018-09-24T14:15:35.452Z,15.40
2018-09-24T14:18:10.051Z,15.40
2018-09-24T14:20:51.347Z,15.40
2018-09-24T14:23:26.036Z,15.40
2018-09-24T14:26:00.724Z,15.50
2018-09-24T14:28:35.215Z,15.60
2018-09-24T14:31:09.775Z,15.70
2018-09-24T14:33:44.302Z,15.80
2018-09-24T14:36:18.876Z,15.90
2018-09-24T14:38:53.426Z,15.90
2018-09-24T14:41:28.152Z,16.00
2018-09-24T14:44:02.718Z,15.90
2018-09-24T14:46:37.408Z,15.80
2018-09-24T14:49:12.153Z,15.90
2018-09-24T14:51:47.780Z,15.90
2018-09-24T14:54:22.388Z,15.90
2018-09-24T14:56:57.190Z,15.80
2018-09-24T14:59:31.808Z,15.80
2018-09-24T15:02:06.224Z,15.80
2018-09-24T15:04:40.651Z,15.70
2018-09-24T15:07:15.250Z,15.70
2018-09-24T15:09:49.834Z,15.70
2018-09-24T15:12:24.490Z,15.60
2018-09-24T15:14:58.918Z,15.50
2018-09-24T15:17:33.579Z,15.50
2018-09-24T15:20:08.040Z,15.40
2018-09-24T15:22:42.575Z,15.30
2018-09-24T15:25:17.021Z,15.30
2018-09-24T15:27:51.574Z,15.40
2018-09-24T15:30:26.148Z,15.40
2018-09-24T15:33:00.587Z,15.30
2018-09-24T15:35:35.361Z,15.20
2018-09-24T15:38:09.920Z,15.20
2018-09-24T15:40:44.621Z,15.20
2018-09-24T15:43:19.122Z,15.20
2018-09-24T15:45:53.954Z,15.30
2018-09-24T15:48:28.718Z,15.20
2018-09-24T15:51:03.240Z,15.20
2018-09-24T15:53:37.976Z,15.20
2018-09-24T15:56:12.536Z,15.10
2018-09-24T15:58:47.092Z,15.20
2018-09-24T16:01:21.810Z,15.10
2018-09-24T16:03:56.365Z,15.00
2018-09-24T16:06:30.847Z,15.00
2018-09-24T16:09:05.563Z,15.00
2018-09-24T16:11:40.046Z,15.00
2018-09-24T16:14:14.461Z,15.00
2018-09-24T16:16:48.995Z,15.00
2018-09-24T16:19:24.064Z,15.10
2018-09-24T16:21:58.654Z,15.20
2018-09-24T16:24:33.205Z,15.10
2018-09-24T16:27:07.807Z,15.10
2018-09-24T16:29:42.346Z,15.00
2018-09-24T16:32:17.095Z,15.00
2018-09-24T16:34:51.635Z,14.90
2018-09-24T16:37:26.121Z,14.90
2018-09-24T16:40:00.682Z,14.90
2018-09-24T16:42:35.363Z,14.90
2018-09-24T16:45:10.060Z,14.90
2018-09-24T16:47:44.596Z,14.80
2018-09-24T16:50:19.337Z,14.70
2018-09-24T16:52:53.835Z,14.70
2018-09-24T16:55:28.419Z,14.60
2018-09-24T16:58:02.863Z,14.50
2018-09-24T17:00:37.606Z,14.50
2018-09-24T17:03:12.457Z,14.40
2018-09-24T17:05:47.143Z,14.40
2018-09-24T17:08:21.801Z,14.40
2018-09-24T17:10:56.346Z,14.40
2018-09-24T17:13:30.897Z,14.40
2018-09-24T17:16:05.600Z,14.40
2018-09-24T17:18:40.359Z,14.40
2018-09-24T17:21:15.042Z,14.40
2018-09-24T17:23:49.649Z,14.40
2018-09-24T17:26:24.340Z,14.40
2018-09-24T17:28:58.986Z,14.40
2018-09-24T17:31:33.705Z,14.40
2018-09-24T17:34:08.249Z,14.30
2018-09-24T17:36:43.078Z,14.30
2018-09-24T17:39:17.784Z,14.40
2018-09-24T17:41:52.447Z,14.30
2018-09-24T17:44:27.077Z,14.30
2018-09-24T17:47:01.552Z,14.30
2018-09-24T17:49:36.099Z,14.30
2018-09-24T17:52:10.760Z,14.20
2018-09-24T17:54:45.231Z,14.20
2018-09-24T17:57:19.795Z,14.10
2018-09-24T17:59:54.419Z,14.10
2018-09-24T18:02:28.951Z,14.10
2018-09-24T18:05:03.461Z,14.00
2018-09-24T18:07:38.101Z,14.00
2018-09-24T18:10:12.868Z,14.00
2018-09-24T18:12:47.433Z,14.00
2018-09-24T18:15:22.026Z,13.90
2018-09-24T18:17:56.639Z,13.80
2018-09-24T18:20:31.323Z,13.80
2018-09-24T18:23:05.953Z,13.70
2018-09-24T18:25:40.668Z,13.70
2018-09-24T18:28:15.142Z,13.60
2018-09-24T18:30:49.684Z,13.50
2018-09-24T18:33:24.359Z,13.50
2018-09-24T18:35:58.931Z,13.50
2018-09-24T18:38:33.725Z,13.40
2018-09-24T18:41:08.417Z,13.40
2018-09-24T18:43:42.925Z,13.40
2018-09-24T18:46:17.533Z,13.40
2018-09-24T18:48:52.068Z,13.40
2018-09-24T18:51:26.682Z,13.30
2018-09-24T18:54:01.448Z,13.20
2018-09-24T18:56:36.015Z,13.10
2018-09-24T18:59:11.566Z,13.10
2018-09-24T19:01:46.342Z,13.00
2018-09-24T19:04:20.989Z,13.00
2018-09-24T19:06:55.441Z,12.90
2018-09-24T19:09:29.961Z,12.90
2018-09-24T19:12:04.699Z,12.90
2018-09-24T19:14:39.229Z,12.90
2018-09-24T19:17:13.547Z,12.80
2018-09-24T19:19:48.153Z,12.80
2018-09-24T19:22:22.957Z,12.70
2018-09-24T19:24:57.595Z,12.70
2018-09-24T19:27:32.184Z,12.60
2018-09-24T19:30:06.678Z,12.60
2018-09-24T19:32:41.457Z,12.60
2018-09-24T19:35:15.979Z,12.50
2018-09-24T19:37:50.645Z,12.50
2018-09-24T19:40:25.207Z,12.40
2018-09-24T19:42:59.995Z,12.40
2018-09-24T19:45:34.676Z,12.40
2018-09-24T19:48:09.271Z,12.40
2018-09-24T19:50:43.884Z,12.30
2018-09-24T19:53:18.260Z,12.30
2018-09-24T19:55:52.797Z,12.20
2018-09-24T19:58:27.429Z,12.20
2018-09-24T20:01:02.008Z,12.20
2018-09-24T20:03:36.776Z,12.20
2018-09-24T20:06:11.249Z,12.30
2018-09-24T20:08:46.065Z,12.40
2018-09-24T20:11:20.743Z,12.30
2018-09-24T20:13:55.239Z,12.40
2018-09-24T20:16:29.715Z,12.40
2018-09-24T20:19:04.400Z,12.40
2018-09-24T20:21:39.111Z,12.40
2018-09-24T20:24:13.673Z,12.40
2018-09-24T20:26:48.579Z,12.40
2018-09-24T20:29:23.134Z,12.30
2018-09-24T20:31:57.535Z,12.40
2018-09-24T20:34:32.132Z,12.40
2018-09-24T20:37:06.764Z,12.40
2018-09-24T20:39:41.372Z,12.40
2018-09-24T20:42:16.145Z,12.40
2018-09-24T20:44:50.563Z,12.40
2018-09-24T20:47:25.231Z,12.30
2018-09-24T20:49:59.986Z,12.20
2018-09-24T20:52:34.531Z,12.20
2018-09-24T20:55:09.343Z,12.20
2018-09-24T20:57:43.975Z,12.20
2018-09-24T21:00:18.353Z,12.10
2018-09-24T21:02:53.115Z,12.00
2018-09-24T21:05:27.672Z,11.90
2018-09-24T21:08:02.294Z,11.90
2018-09-24T21:10:37.107Z,11.90
2018-09-24T21:13:11.625Z,11.90
2018-09-24T21:15:46.395Z,11.80
2018-09-24T21:18:21.065Z,11.80
2018-09-24T21:20:55.557Z,11.80
2018-09-24T21:23:30.263Z,11.80
2018-09-24T21:26:04.743Z,11.80
2018-09-24T21:28:40.064Z,11.70
2018-09-24T21:31:14.734Z,11.60
2018-09-24T21:33:49.312Z,11.60
2018-09-24T21:36:23.943Z,11.60
2018-09-24T21:38:58.298Z,11.60
2018-09-24T21:41:32.801Z,11.60
2018-09-24T21:44:07.492Z,11.60
2018-09-24T21:46:42.415Z,11.50
2018-09-24T21:49:16.796Z,11.50
2018-09-24T21:51:51.436Z,11.50
2018-09-24T21:54:26.019Z,11.60
2018-09-24T21:57:00.431Z,11.60
2018-09-24T21:59:34.951Z,11.60
2018-09-24T22:02:09.895Z,11.50
2018-09-24T22:04:44.505Z,11.50
2018-09-24T22:07:18.983Z,11.50
2018-09-24T22:09:53.791Z,11.50
2018-09-24T22:12:28.380Z,11.50
2018-09-24T22:15:02.887Z,11.50
2018-09-24T22:17:37.371Z,11.50
2018-09-24T22:20:11.994Z,11.50
2018-09-24T22:22:46.711Z,11.50
2018-09-24T22:25:21.128Z,11.50
2018-09-24T22:27:55.552Z,11.50
2018-09-24T22:30:30.181Z,11.50
2018-09-24T22:33:04.724Z,11.50
2018-09-24T22:35:39.433Z,11.50
2018-09-24T22:38:14.086Z,11.50
2018-09-24T22:40:48.521Z,11.40
2018-09-24T22:43:22.888Z,11.40
2018-09-24T22:45:57.623Z,11.20
2018-09-24T22:48:32.271Z,11.20
2018-09-24T22:51:06.871Z,11.20
2018-09-24T22:53:41.427Z,11.20
2018-09-24T22:56:15.987Z,11.10
2018-09-24T22:58:50.808Z,11.00
2018-09-24T23:01:25.432Z,11.00
2018-09-24T23:04:00.013Z,11.00
2018-09-24T23:06:34.721Z,10.90
2018-09-24T23:09:09.358Z,10.90
2018-09-24T23:11:43.966Z,10.60
2018-09-24T23:14:18.393Z,10.60
2018-09-24T23:16:53.099Z,10.60
2018-09-24T23:19:27.493Z,10.60
2018-09-24T23:22:02.260Z,10.60
2018-09-24T23:24:36.850Z,10.60
2018-09-24T23:27:11.415Z,10.50
2018-09-24T23:29:46.181Z,10.50
2018-09-24T23:32:20.822Z,10.40
2018-09-24T23:34:55.404Z,10.50
2018-09-24T23:37:30.028Z,10.40
2018-09-24T23:40:04.587Z,10.40
2018-09-24T23:42:39.170Z,10.50
2018-09-24T23:45:13.980Z,10.40
2018-09-24T23:47:48.508Z,10.50
2018-09-24T23:50:23.191Z,10.40
2018-09-24T23:52:57.750Z,10.50
2018-09-24T23:55:32.432Z,10.40
2018-09-24T23:58:06.998Z,10.40
